Time;durP1;ratioP1;P1;durP2;ratioP2;P2;SDS_P1;SDS_P2;PMS_P1;PMS_P2;Temp;Humidity;BMP_temperature;BMP_pressure;BME280_temperature;BME280_humidity;BME280_pressure;Samples;Min_cycle;Max_cycle;Signal;HPM_P1;HPM_P2
2021/03/23 00:00:49;;;;;;;13.27;8.23;;;;;;;3.41;68.73;97223.03;5073220;28;20040;-71
2021/03/23 00:03:26;;;;;;;14.55;8.15;;;;;;;3.40;68.75;97218.78;5063906;28;20045;-71
2021/03/23 00:05:52;;;;;;;11.73;7.80;;;;;;;3.40;68.82;97221.38;5062788;28;20041;-70
2021/03/23 00:08:32;;;;;;;12.88;7.80;;;;;;;3.43;68.75;97227.09;5073291;28;20461;-71
2021/03/23 00:11:03;;;;;;;10.57;8.18;;;;;;;3.42;68.80;97217.69;5073786;28;20036;-71
2021/03/23 00:13:29;;;;;;;12.32;8.18;;;;;;;3.43;68.66;97227.09;5073166;28;20397;-71
2021/03/23 00:15:56;;;;;;;11.40;7.30;;;;;;;3.44;68.73;97233.91;5073055;28;20052;-71
2021/03/23 00:18:22;;;;;;;13.25;7.80;;;;;;;3.45;68.87;97230.34;5058537;28;20048;-71
2021/03/23 00:20:48;;;;;;;10.10;7.35;;;;;;;3.47;68.96;97229.38;5073360;28;20043;-71
2021/03/23 00:23:16;;;;;;;11.60;7.57;;;;;;;3.45;68.82;97230.34;5072500;28;20051;-72
2021/03/23 00:25:42;;;;;;;11.43;6.95;;;;;;;3.44;68.73;97233.91;5072984;28;20056;-71
2021/03/23 00:28:09;;;;;;;11.18;7.63;;;;;;;3.45;68.74;97234.72;5072929;28;20040;-71
2021/03/23 00:30:36;;;;;;;12.80;7.35;;;;;;;3.47;68.82;97231.97;5062109;28;20024;-71
2021/03/23 00:33:02;;;;;;;11.60;7.75;;;;;;;3.47;68.79;97225.00;5072870;28;20489;-71
2021/03/23 00:35:28;;;;;;;14.40;7.68;;;;;;;3.45;68.69;97230.34;5072544;28;20048;-71
2021/03/23 00:37:58;;;;;;;13.70;7.70;;;;;;;3.43;68.83;97234.88;5072711;28;20040;-71
2021/03/23 00:40:34;;;;;;;9.90;7.07;;;;;;;3.39;68.83;97222.38;5072606;28;20036;-70
2021/03/23 00:43:03;;;;;;;10.82;6.75;;;;;;;3.40;68.79;97231.75;5057947;28;20040;-71
2021/03/23 00:45:30;;;;;;;10.15;7.18;;;;;;;3.38;68.94;97224.16;5072709;28;20043;-71
2021/03/23 00:47:57;;;;;;;11.32;7.30;;;;;;;3.40;69.02;97218.78;5072830;28;20392;-71
2021/03/23 00:50:23;;;;;;;13.05;7.13;;;;;;;3.39;68.77;97227.56;5072850;28;20040;-71
2021/03/23 00:52:50;;;;;;;10.13;7.32;;;;;;;3.37;68.73;97222.50;5072609;28;20040;-71
2021/03/23 00:55:16;;;;;;;11.65;7.53;;;;;;;3.39;69.17;97222.38;5072831;28;20047;-71
2021/03/23 00:57:42;;;;;;;11.25;6.50;;;;;;;3.39;68.91;97217.97;5072864;28;20041;-71
2021/03/23 01:00:12;;;;;;;12.52;7.68;;;;;;;3.39;68.92;97228.34;5071207;28;20037;-71
2021/03/23 01:02:39;;;;;;;11.55;7.13;;;;;;;3.39;68.86;97228.34;5073470;28;20469;-71
2021/03/23 01:05:06;;;;;;;10.70;6.85;;;;;;;3.41;69.06;97225.63;5072553;28;20396;-71
2021/03/23 01:07:33;;;;;;;12.40;7.47;;;;;;;3.41;69.17;97220.44;5072979;28;20472;-71
2021/03/23 01:09:59;;;;;;;11.93;7.80;;;;;;;3.42;68.94;97224.63;5072883;28;20040;-71
2021/03/23 01:12:25;;;;;;;11.40;6.70;;;;;;;3.41;69.04;97220.44;5072528;28;20040;-71
2021/03/23 01:14:52;;;;;;;11.63;7.28;;;;;;;3.41;69.10;97220.44;5072504;28;20060;-71
2021/03/23 01:17:18;;;;;;;13.02;8.30;;;;;;;3.43;69.09;97221.09;5073126;28;20049;-71
2021/03/23 01:19:44;;;;;;;9.50;6.97;;;;;;;3.44;69.06;97222.72;5072707;28;20041;-71
2021/03/23 01:22:11;;;;;;;12.20;7.38;;;;;;;3.44;69.05;97214.94;5073152;28;20400;-70
2021/03/23 01:24:37;;;;;;;11.55;7.47;;;;;;;3.44;69.00;97226.13;5072162;28;20064;-71
2021/03/23 01:27:04;;;;;;;10.98;7.00;;;;;;;3.45;69.15;97222.56;5072354;28;20055;-71
2021/03/23 01:29:31;;;;;;;11.95;6.93;;;;;;;3.46;69.21;97223.38;5071958;28;20051;-71
2021/03/23 01:31:58;;;;;;;12.90;7.22;;;;;;;3.38;69.10;97221.56;5072621;28;20480;-71
2021/03/23 01:34:24;;;;;;;15.38;7.93;;;;;;;3.27;69.05;97226.19;5072926;28;20045;-71
2021/03/23 01:36:50;;;;;;;14.18;7.82;;;;;;;3.19;69.17;97232.09;5072393;28;20040;-71
2021/03/23 01:39:16;;;;;;;13.77;7.95;;;;;;;3.19;69.49;97230.34;5072703;28;20060;-71
2021/03/23 01:41:43;;;;;;;10.43;7.85;;;;;;;3.21;69.42;97227.59;5072616;28;20409;-71
2021/03/23 01:44:09;;;;;;;14.48;7.47;;;;;;;3.22;69.54;97227.44;5072263;28;20119;-70
2021/03/23 01:46:45;;;;;;;9.60;7.65;;;;;;;3.23;69.75;97228.25;5072244;28;20036;-71
2021/03/23 01:49:34;;;;;;;14.90;8.20;;;;;;;3.23;70.11;97223.91;5072341;28;20032;-71
2021/03/23 01:52:06;;;;;;;13.50;8.65;;;;;;;3.22;69.47;97224.03;5075065;28;20032;-71
2021/03/23 01:54:39;;;;;;;17.63;9.40;;;;;;;3.19;69.55;97221.75;5075796;28;20036;-71
2021/03/23 01:57:09;;;;;;;15.25;9.27;;;;;;;3.16;69.60;97227.25;5076221;28;20033;-71
2021/03/23 01:59:42;;;;;;;13.00;8.90;;;;;;;3.15;69.90;97230.78;5076159;28;20036;-71
2021/03/23 02:02:08;;;;;;;13.27;8.63;;;;;;;3.16;69.82;97228.03;5074190;28;20067;-71
2021/03/23 02:04:35;;;;;;;10.65;7.68;;;;;;;3.18;69.81;97222.72;5075590;28;20032;-71
2021/03/23 02:07:01;;;;;;;12.25;7.70;;;;;;;3.20;69.86;97219.00;5074714;28;20033;-71
2021/03/23 02:09:30;;;;;;;13.80;8.73;;;;;;;3.23;69.93;97216.13;5075629;28;20032;-71
2021/03/23 02:12:00;;;;;;;12.63;8.25;;;;;;;3.21;69.88;97225.84;5075674;28;20043;-71
2021/03/23 02:14:29;;;;;;;15.18;8.48;;;;;;;3.22;69.93;97216.28;5075711;28;20040;-71
2021/03/23 02:17:33;;;;;;;10.45;7.80;;;;;;;3.24;70.40;97219.53;5075337;28;20036;-71
2021/03/23 02:20:03;;;;;;;14.25;8.57;;;;;;;3.24;69.88;97211.75;5075232;28;20052;-71
2021/03/23 02:22:37;;;;;;;15.23;9.18;;;;;;;3.22;70.22;97216.28;5075779;28;20036;-71
2021/03/23 02:25:28;;;;;;;13.07;8.70;;;;;;;3.14;70.27;97217.03;5075270;28;20033;-71
2021/03/23 02:27:54;;;;;;;11.95;8.07;;;;;;;3.07;70.27;97215.16;5067714;28;20044;-71
2021/03/23 02:30:28;;;;;;;11.68;8.70;;;;;;;3.09;70.33;97208.91;5074088;28;20058;-71
2021/03/23 02:32:54;;;;;;;11.18;7.82;;;;;;;3.10;70.35;97207.13;5075558;28;20041;-71
2021/03/23 02:35:21;;;;;;;9.02;7.40;;;;;;;3.14;70.54;97217.03;5074746;28;20048;-71
2021/03/23 02:37:47;;;;;;;14.23;8.80;;;;;;;3.16;70.52;97207.31;5075262;28;20424;-71
2021/03/23 02:40:14;;;;;;;12.77;8.73;;;;;;;3.21;70.70;97217.22;5075163;28;20037;-71
2021/03/23 02:42:40;;;;;;;11.98;8.63;;;;;;;3.21;70.59;97209.44;5075864;28;20085;-71
2021/03/23 02:45:07;;;;;;;14.68;9.10;;;;;;;3.24;70.59;97212.56;5074819;28;20495;-71
2021/03/23 02:47:33;;;;;;;14.30;8.55;;;;;;;3.24;70.61;97211.75;5075034;28;20036;-71
2021/03/23 02:50:00;;;;;;;12.10;8.55;;;;;;;3.25;70.70;97208.16;5075084;28;20036;-71
2021/03/23 02:52:26;;;;;;;13.43;7.95;;;;;;;3.27;70.53;97208.84;5074724;28;20033;-71
2021/03/23 02:54:52;;;;;;;13.98;8.18;;;;;;;3.28;70.81;97207.88;5075191;28;20048;-71
2021/03/23 02:57:18;;;;;;;12.02;8.38;;;;;;;3.29;70.83;97211.28;5074726;28;20465;-71
2021/03/23 02:59:44;;;;;;;12.65;8.10;;;;;;;3.29;70.82;97208.69;5075070;28;20044;-71
2021/03/23 03:02:11;;;;;;;11.38;8.30;;;;;;;3.29;70.97;97209.50;5074074;28;20045;-71
2021/03/23 03:04:39;;;;;;;12.77;8.10;;;;;;;3.29;70.93;97211.28;5073482;28;20032;-71
2021/03/23 03:07:05;;;;;;;14.40;9.25;;;;;;;3.29;70.75;97212.09;5074864;28;20036;-71
2021/03/23 03:09:31;;;;;;;12.23;9.07;;;;;;;3.31;70.88;97206.75;5074854;28;20044;-71
2021/03/23 03:11:58;;;;;;;15.85;8.55;;;;;;;3.30;71.05;97203.34;5075022;28;20029;-71
2021/03/23 03:14:24;;;;;;;11.23;7.85;;;;;;;3.31;71.09;97202.38;5074516;28;20476;-71
2021/03/23 03:16:50;;;;;;;14.93;8.95;;;;;;;3.31;71.07;97212.75;5074260;28;20505;-71
2021/03/23 03:19:18;;;;;;;15.27;8.10;;;;;;;3.32;71.03;97209.22;5074266;28;20052;-71
2021/03/23 03:21:45;;;;;;;12.65;7.70;;;;;;;3.33;71.08;97200.44;5074069;28;20390;-71
2021/03/23 03:24:11;;;;;;;14.20;8.43;;;;;;;3.34;71.03;97207.28;5074056;28;20124;-71
2021/03/23 03:26:37;;;;;;;17.15;9.40;;;;;;;3.34;71.09;97196.06;5073559;28;20048;-71
2021/03/23 03:29:04;;;;;;;18.38;10.00;;;;;;;3.37;71.01;97200.97;5074343;28;20041;-71
2021/03/23 03:31:31;;;;;;;12.13;8.15;;;;;;;3.36;70.90;97196.72;5074098;28;20032;-71
2021/03/23 03:33:59;;;;;;;13.45;8.82;;;;;;;3.34;71.02;97196.91;5073963;28;20048;-71
2021/03/23 03:36:27;;;;;;;12.68;8.45;;;;;;;3.32;71.20;97196.25;5074095;28;20032;-71
2021/03/23 03:38:54;;;;;;;11.70;8.90;;;;;;;3.31;71.21;97189.41;5074076;28;20044;-71
2021/03/23 03:41:21;;;;;;;14.20;8.35;;;;;;;3.32;71.33;97187.63;5073519;28;20472;-71
2021/03/23 03:43:47;;;;;;;11.90;8.25;;;;;;;3.33;71.26;97195.25;5073764;28;20037;-71
2021/03/23 03:46:14;;;;;;;10.27;8.07;;;;;;;3.33;71.21;97192.66;5073798;28;20043;-71
2021/03/23 03:48:40;;;;;;;14.10;8.80;;;;;;;3.34;71.25;97188.28;5073796;28;20049;-71
2021/03/23 03:51:06;;;;;;;13.45;8.93;;;;;;;3.36;71.45;97192.38;5073861;28;20393;-71
2021/03/23 03:53:33;;;;;;;14.00;9.15;;;;;;;3.35;71.33;97189.94;5073595;28;20028;-71
2021/03/23 03:56:00;;;;;;;15.35;8.73;;;;;;;3.34;71.21;97202.09;5073542;28;20044;-71
2021/03/23 03:58:26;;;;;;;15.18;8.90;;;;;;;3.33;71.20;97200.44;5073670;28;20603;-71
2021/03/23 04:00:52;;;;;;;14.45;9.05;;;;;;;3.30;71.13;97200.75;5073529;28;20036;-71
2021/03/23 04:03:24;;;;;;;13.00;8.88;;;;;;;3.29;71.16;97203.50;5073622;28;20043;-71
2021/03/23 04:05:52;;;;;;;16.10;9.05;;;;;;;3.27;71.19;97202.84;5073519;28;20044;-71
2021/03/23 04:08:25;;;;;;;16.00;8.98;;;;;;;3.23;71.31;97200.56;5073406;28;20041;-71
2021/03/23 04:10:53;;;;;;;12.60;8.80;;;;;;;3.24;71.28;97194.41;5073857;28;20052;-71
2021/03/23 04:13:20;;;;;;;12.02;8.38;;;;;;;3.24;71.29;97193.59;5073433;28;20048;-71
2021/03/23 04:15:49;;;;;;;16.83;9.02;;;;;;;3.27;71.33;97202.84;5072316;28;20059;-71
2021/03/23 04:18:19;;;;;;;13.77;8.70;;;;;;;3.25;71.58;97196.06;5073130;28;20469;-71
2021/03/23 04:20:45;;;;;;;13.48;9.10;;;;;;;3.27;71.45;97200.25;5073746;28;20029;-71
2021/03/23 04:23:33;;;;;;;13.13;9.70;;;;;;;3.22;71.62;97214.47;5073411;28;20032;-71
2021/03/23 04:26:00;;;;;;;14.30;9.07;;;;;;;3.17;71.39;97221.06;5072897;28;20036;-71
2021/03/23 04:28:27;;;;;;;15.07;9.40;;;;;;;3.13;71.65;97217.16;5073286;28;20052;-71
2021/03/23 04:30:53;;;;;;;17.80;8.77;;;;;;;3.12;71.59;97218.16;5073225;28;20032;-71
2021/03/23 04:33:21;;;;;;;13.50;9.20;;;;;;;3.09;71.67;97221.84;5073784;28;20036;-71
2021/03/23 04:35:55;;;;;;;15.93;9.95;;;;;;;3.05;71.94;97225.72;5073306;28;20043;-71
2021/03/23 04:38:33;;;;;;;15.57;9.40;;;;;;;3.00;71.97;97220.16;5062374;28;20039;-71
2021/03/23 04:41:04;;;;;;;16.10;9.60;;;;;;;2.95;72.09;97218.03;5071710;28;20040;-71
2021/03/23 04:43:39;;;;;;;17.00;9.38;;;;;;;2.96;72.22;97224.84;5073337;28;20040;-71
2021/03/23 04:46:06;;;;;;;14.15;9.25;;;;;;;2.98;72.29;97215.16;5072752;28;20040;-71
2021/03/23 04:48:32;;;;;;;15.18;9.68;;;;;;;2.98;72.17;97219.50;5073608;28;20048;-71
2021/03/23 04:50:59;;;;;;;13.02;9.35;;;;;;;2.99;72.15;97228.91;5072963;28;20055;-71
2021/03/23 04:53:31;;;;;;;14.77;9.45;;;;;;;3.00;72.38;97231.34;5072878;28;20029;-71
2021/03/23 04:55:58;;;;;;;16.88;10.02;;;;;;;3.00;72.39;97228.75;5071919;28;20029;-71
2021/03/23 04:58:26;;;;;;;14.43;9.77;;;;;;;2.99;72.33;97234.91;5073145;28;20032;-71
2021/03/23 05:00:53;;;;;;;11.63;8.45;;;;;;;3.00;72.34;97227.94;5072976;28;20033;-71
2021/03/23 05:03:23;;;;;;;13.63;9.07;;;;;;;3.01;72.45;97238.16;5072937;28;20044;-71
2021/03/23 05:05:58;;;;;;;14.95;9.40;;;;;;;3.04;72.58;97235.28;5072675;28;20053;-71
2021/03/23 05:08:25;;;;;;;15.30;9.93;;;;;;;3.06;72.47;97235.09;5072859;28;20032;-71
2021/03/23 05:10:52;;;;;;;15.52;9.88;;;;;;;3.08;72.70;97235.75;5072873;28;20048;-71
2021/03/23 05:13:18;;;;;;;13.98;8.90;;;;;;;3.11;72.47;97237.22;5072747;28;20048;-71
2021/03/23 05:15:45;;;;;;;14.60;9.23;;;;;;;3.12;72.54;97238.88;5072712;28;20061;-71
2021/03/23 05:18:12;;;;;;;14.05;9.55;;;;;;;3.12;72.45;97231.09;5072768;28;20404;-71
2021/03/23 05:20:38;;;;;;;14.57;9.18;;;;;;;3.10;72.50;97245.97;5072654;28;20052;-72
2021/03/23 05:23:04;;;;;;;15.70;9.60;;;;;;;3.03;72.39;97246.59;5072599;28;20055;-70
2021/03/23 05:25:31;;;;;;;13.45;8.93;;;;;;;2.97;72.56;97239.41;5072704;28;20043;-71
2021/03/23 05:27:57;;;;;;;14.23;9.38;;;;;;;2.94;72.79;97244.06;5076396;28;20041;-71
2021/03/23 05:30:25;;;;;;;15.73;9.15;;;;;;;2.93;72.71;97245.84;5076358;28;20039;-71
2021/03/23 05:32:51;;;;;;;14.85;9.75;;;;;;;2.94;72.99;97242.31;5076251;28;20115;-71
2021/03/23 05:35:19;;;;;;;12.73;8.73;;;;;;;2.94;72.83;97247.50;5076143;28;20047;-71
2021/03/23 05:37:45;;;;;;;14.43;9.20;;;;;;;2.97;72.91;97244.59;5076196;28;20484;-71
2021/03/23 05:40:19;;;;;;;14.00;9.50;;;;;;;2.99;73.31;97242.66;5076161;28;20400;-71
2021/03/23 05:42:48;;;;;;;26.30;18.10;;;;;;;3.03;73.30;97241.41;5075791;28;20392;-71
2021/03/23 05:45:45;;;;;;;17.33;11.65;;;;;;;3.06;73.75;97232.50;5076112;28;20044;-71
2021/03/23 05:48:26;;;;;;;15.18;9.95;;;;;;;3.08;73.47;97237.53;5061622;28;20473;-71
2021/03/23 05:51:09;;;;;;;14.98;9.43;;;;;;;3.11;73.49;97240.66;5075996;28;20495;-71
2021/03/23 05:53:47;;;;;;;16.52;9.88;;;;;;;3.12;73.05;97246.66;5075714;28;20047;-71
2021/03/23 05:56:15;;;;;;;13.65;9.70;;;;;;;3.12;73.16;97247.47;5076359;28;20048;-71
2021/03/23 05:58:50;;;;;;;12.23;8.93;;;;;;;3.16;73.19;97253.16;5075936;28;20043;-71
2021/03/23 06:01:26;;;;;;;12.88;9.00;;;;;;;3.17;73.15;97252.19;5064858;28;20029;-71
2021/03/23 06:04:02;;;;;;;11.10;8.38;;;;;;;3.20;73.05;97249.31;5075779;28;20032;-71
2021/03/23 06:06:28;;;;;;;16.20;8.98;;;;;;;3.22;73.04;97262.94;5075518;28;20389;-71
2021/03/23 06:08:54;;;;;;;17.52;10.10;;;;;;;3.24;73.23;97259.22;5075760;28;20052;-71
2021/03/23 06:11:32;;;;;;;14.52;10.57;;;;;;;3.25;73.10;97262.59;5075374;28;20040;-71
2021/03/23 06:14:28;;;;;;;14.88;10.70;;;;;;;3.24;73.81;97267.00;5074706;28;20059;-71
2021/03/23 06:16:57;;;;;;;17.88;11.45;;;;;;;3.25;73.42;97272.97;5057745;28;20397;-71
2021/03/23 06:19:47;;;;;;;15.48;9.70;;;;;;;3.27;73.23;97278.03;5075775;28;20479;-71
2021/03/23 06:22:38;;;;;;;12.57;8.70;;;;;;;3.21;73.71;97277.66;5058409;28;20044;-71
2021/03/23 06:25:13;;;;;;;19.98;10.25;;;;;;;3.19;73.22;97278.75;5075960;28;20024;-71
2021/03/23 06:27:46;;;;;;;15.35;8.82;;;;;;;3.20;73.30;97277.81;5075689;28;20055;-71
2021/03/23 06:30:30;;;;;;;14.20;8.70;;;;;;;3.16;73.39;97277.28;5075068;28;20052;-71
2021/03/23 06:32:57;;;;;;;15.05;9.27;;;;;;;3.15;73.21;97287.81;5075339;28;20040;-71
2021/03/23 06:35:37;;;;;;;17.90;10.50;;;;;;;3.16;73.52;97292.03;5075079;28;20411;-71
2021/03/23 06:38:06;;;;;;;13.60;10.95;;;;;;;3.15;73.36;97290.38;5074409;28;20056;-71
2021/03/23 06:40:35;;;;;;;18.33;10.27;;;;;;;3.12;73.36;97285.53;5074946;28;20033;-70
2021/03/23 06:43:28;;;;;;;19.42;10.68;;;;;;;3.05;74.36;97287.91;5073653;28;20468;-71
2021/03/23 06:46:16;;;;;;;15.38;9.68;;;;;;;3.03;74.40;97303.59;5069314;28;20044;-71
2021/03/23 06:49:06;;;;;;;16.35;9.48;;;;;;;3.07;74.43;97298.09;5075581;28;20051;-71
2021/03/23 06:51:33;;;;;;;14.15;9.85;;;;;;;3.08;73.84;97297.16;5074903;28;20039;-71
2021/03/23 06:54:18;;;;;;;13.10;8.65;;;;;;;3.15;74.50;97299.00;5075142;28;20139;-71
2021/03/23 06:56:45;;;;;;;25.88;16.88;;;;;;;3.21;73.98;97303.59;5074977;28;20055;-71
2021/03/23 06:59:15;;;;;;;16.20;9.90;;;;;;;3.23;73.99;97300.84;5075282;28;20052;-71
2021/03/23 07:01:51;;;;;;;16.90;9.90;;;;;;;3.27;74.05;97309.13;5074651;28;20040;-71
2021/03/23 07:04:36;;;;;;;16.25;10.50;;;;;;;3.25;74.45;97298.91;5074871;28;20029;-71
2021/03/23 07:07:03;;;;;;;21.70;11.65;;;;;;;3.22;73.80;97312.19;5063025;28;20036;-70
2021/03/23 07:09:29;;;;;;;19.55;10.25;;;;;;;3.20;73.96;97304.53;5073677;28;20045;-70
2021/03/23 07:12:03;;;;;;;14.57;10.07;;;;;;;3.21;74.04;97307.94;5074130;28;20048;-71
2021/03/23 07:14:42;;;;;;;13.82;10.90;;;;;;;3.25;74.48;97311.84;5074736;28;20421;-71
2021/03/23 07:17:08;;;;;;;16.67;9.82;;;;;;;3.34;74.44;97313.56;5074337;28;20048;-71
2021/03/23 07:19:52;;;;;;;15.32;10.25;;;;;;;3.45;74.64;97315.09;5074911;28;20028;-71
2021/03/23 07:22:34;;;;;;;18.80;9.77;;;;;;;3.51;74.24;97316.25;5074197;28;20047;-71
2021/03/23 07:25:04;;;;;;;17.70;11.25;;;;;;;3.57;73.89;97313.06;5074314;28;20051;-71
2021/03/23 07:27:30;;;;;;;16.45;9.85;;;;;;;3.61;73.87;97314.38;5074162;28;20476;-71
2021/03/23 07:30:26;;;;;;;13.65;10.25;;;;;;;3.68;74.31;97320.59;5073141;28;20040;-71
2021/03/23 07:32:58;;;;;;;13.32;10.40;;;;;;;3.75;74.04;97326.00;5074347;28;20457;-71
2021/03/23 07:35:30;;;;;;;15.07;9.80;;;;;;;3.84;73.87;97323.31;5073685;28;20036;-71
2021/03/23 07:38:05;;;;;;;16.38;10.73;;;;;;;3.94;73.69;97333.56;5074005;28;20047;-71
2021/03/23 07:40:31;;;;;;;18.42;11.95;;;;;;;3.96;73.47;97333.41;5073344;28;20040;-71
2021/03/23 07:42:58;;;;;;;15.50;10.55;;;;;;;3.93;73.46;97336.31;5074356;28;20358;-71
2021/03/23 07:45:55;;;;;;;18.88;11.13;;;;;;;3.89;73.60;97340.19;5073673;28;20496;-71
2021/03/23 07:48:38;;;;;;;19.63;11.25;;;;;;;3.88;73.59;97335.97;5055330;28;20396;-71
2021/03/23 07:51:23;;;;;;;16.42;10.77;;;;;;;3.91;73.94;97333.88;5074355;28;20491;-71
2021/03/23 07:53:50;;;;;;;16.50;11.20;;;;;;;3.95;73.47;97340.38;5063967;28;20033;-71
2021/03/23 07:56:45;;;;;;;17.80;10.50;;;;;;;4.04;73.70;97330.84;5073844;28;20028;-71
2021/03/23 07:59:50;;;;;;;17.45;11.27;;;;;;;4.14;73.31;97338.53;5064389;28;20457;-71
2021/03/23 08:02:53;;;;;;;17.50;11.85;;;;;;;4.17;73.23;97328.66;5051975;28;20059;-72
2021/03/23 08:05:30;;;;;;;18.38;12.25;;;;;;;4.22;73.27;97331.59;5073547;28;20044;-71
2021/03/23 08:08:09;;;;;;;17.50;11.23;;;;;;;4.28;73.23;97343.13;5073136;28;20048;-70
2021/03/23 08:11:13;;;;;;;18.40;12.75;;;;;;;4.41;73.37;97342.69;5073395;28;20047;-71
2021/03/23 08:14:12;;;;;;;18.00;12.27;;;;;;;4.52;73.23;97337.22;5072405;28;20480;-71
2021/03/23 08:17:03;;;;;;;21.05;12.45;;;;;;;4.65;72.93;97341.97;5064870;28;20044;-71
2021/03/23 08:20:01;;;;;;;18.77;12.25;;;;;;;4.72;72.47;97339.56;5073245;28;20037;-71
2021/03/23 08:22:31;;;;;;;18.38;12.32;;;;;;;4.74;72.58;97340.22;5073465;28;20461;-71
2021/03/23 08:25:16;;;;;;;64.28;35.97;;;;;;;4.80;72.66;97349.97;5073073;28;20037;-71
2021/03/23 08:28:14;;;;;;;33.65;20.13;;;;;;;4.91;72.53;97341.84;5071894;28;20040;-71
2021/03/23 08:30:43;;;;;;;31.00;19.80;;;;;;;5.05;72.50;97341.25;5073265;28;20036;-71
2021/03/23 08:33:24;;;;;;;29.50;19.50;;;;;;;5.18;72.03;97340.75;5073771;28;20032;-71
2021/03/23 08:36:04;;;;;;;23.95;14.93;;;;;;;5.30;71.68;97351.66;5073232;28;20036;-71
2021/03/23 08:38:46;;;;;;;25.98;16.42;;;;;;;5.43;71.12;97348.56;5073035;28;20055;-71
2021/03/23 08:41:42;;;;;;;28.33;19.20;;;;;;;5.51;70.44;97350.38;5073093;28;20465;-71
2021/03/23 08:44:24;;;;;;;24.90;16.83;;;;;;;5.49;71.03;97345.34;5055074;28;20037;-71
2021/03/23 08:46:53;;;;;;;24.88;15.43;;;;;;;5.53;71.22;97348.44;5073001;28;20037;-71
2021/03/23 08:49:22;;;;;;;23.13;15.50;;;;;;;5.53;71.32;97357.03;5072766;28;20044;-71
2021/03/23 08:51:51;;;;;;;24.25;15.00;;;;;;;5.55;70.85;97359.47;5073077;28;20033;-71
2021/03/23 08:54:45;;;;;;;23.33;15.90;;;;;;;5.62;70.05;97348.25;5073166;28;20456;-71
2021/03/23 08:57:12;;;;;;;20.75;14.05;;;;;;;5.67;71.08;97358.19;5071600;28;20396;-71
2021/03/23 08:59:39;;;;;;;25.08;14.90;;;;;;;5.79;71.12;97358.63;5072888;28;20045;-71
2021/03/23 09:02:09;;;;;;;49.60;40.50;;;;;;;5.80;70.14;97358.47;5075939;28;20040;-71
2021/03/23 09:04:55;;;;;;;26.10;18.23;;;;;;;5.83;70.44;97367.75;5077022;28;20396;-71
2021/03/23 09:07:28;;;;;;;21.58;14.73;;;;;;;5.79;70.21;97361.25;5076822;28;20037;-71
2021/03/23 09:09:55;;;;;;;23.13;14.68;;;;;;;5.80;70.25;97363.69;5077061;28;20044;-71
2021/03/23 09:12:33;;;;;;;25.13;14.18;;;;;;;5.88;69.61;97361.06;5076435;28;20047;-71
2021/03/23 09:15:09;;;;;;;22.08;14.05;;;;;;;5.97;68.82;97354.09;5076459;28;20059;-71
2021/03/23 09:17:36;;;;;;;14.65;9.95;;;;;;;6.00;69.63;97358.94;5076925;28;20047;-72
2021/03/23 09:20:37;;;;;;;14.20;10.02;;;;;;;6.02;65.31;97351.78;5076542;28;20039;-71
2021/03/23 09:23:23;;;;;;;17.92;11.25;;;;;;;5.96;65.19;97349.84;5076549;28;20033;-71
2021/03/23 09:25:50;;;;;;;16.77;11.05;;;;;;;6.02;68.65;97356.19;5076798;28;20460;-71
2021/03/23 09:28:40;;;;;;;18.75;11.65;;;;;;;6.02;66.79;97361.38;5076657;28;20036;-71
2021/03/23 09:31:15;;;;;;;15.88;11.63;;;;;;;6.03;67.49;97353.41;5075913;28;20052;-71
2021/03/23 09:33:51;;;;;;;14.13;9.80;;;;;;;6.11;66.86;97352.59;5064646;28;20047;-71
2021/03/23 09:36:42;;;;;;;18.38;9.70;;;;;;;6.25;65.44;97346.66;5076355;28;20051;-71
2021/03/23 09:39:14;;;;;;;16.02;10.48;;;;;;;6.40;67.14;97357.19;5076489;28;20059;-71
2021/03/23 09:41:43;;;;;;;14.13;9.73;;;;;;;6.33;67.00;97345.84;5076088;28;20024;-71
2021/03/23 09:44:16;;;;;;;20.80;11.80;;;;;;;6.25;66.54;97357.09;5076100;28;20389;-71
2021/03/23 09:46:45;;;;;;;18.48;11.85;;;;;;;6.33;67.42;97345.84;5075980;28;20043;-71
2021/03/23 09:49:27;;;;;;;22.45;12.95;;;;;;;6.27;65.99;97338.69;5076017;28;20458;-71
2021/03/23 09:52:03;;;;;;;14.35;10.68;;;;;;;6.35;65.16;97340.47;5075558;28;20493;-71
2021/03/23 09:54:36;;;;;;;17.00;11.43;;;;;;;6.33;66.21;97338.03;5075946;28;20028;-71
2021/03/23 09:57:16;;;;;;;18.33;11.38;;;;;;;6.33;65.25;97340.63;5076072;28;20036;-71
2021/03/23 09:59:45;;;;;;;15.02;11.85;;;;;;;6.34;66.48;97341.44;5075823;28;20037;-71
2021/03/23 10:02:17;;;;;;;17.85;12.15;;;;;;;6.29;65.57;97340.16;5062203;28;20457;-71
2021/03/23 10:04:45;;;;;;;18.55;12.18;;;;;;;6.31;66.35;97339.97;5075696;28;20035;-71
2021/03/23 10:07:35;;;;;;;14.90;9.52;;;;;;;6.35;73.67;97341.28;5075531;28;20037;-71
2021/03/23 10:10:23;;;;;;;21.98;12.05;;;;;;;6.77;66.66;97316.63;5075691;28;20048;-71
2021/03/23 10:12:50;;;;;;;20.52;14.98;;;;;;;6.78;66.31;97320.84;5075407;28;20028;-71
2021/03/23 10:15:21;;;;;;;21.25;13.98;;;;;;;6.71;65.97;97312.91;5075243;28;20489;-71
2021/03/23 10:17:48;;;;;;;15.73;11.55;;;;;;;6.57;65.74;97320.66;5076268;28;20047;-71
2021/03/23 10:20:21;;;;;;;15.48;11.35;;;;;;;6.43;64.63;97317.00;5075380;28;20037;-71
2021/03/23 10:22:54;;;;;;;16.73;11.15;;;;;;;6.33;64.32;97314.56;5076154;28;20131;-71
2021/03/23 10:25:23;;;;;;;16.83;10.80;;;;;;;6.25;65.54;97325.84;5075247;28;20031;-71
2021/03/23 10:27:50;;;;;;;13.88;9.80;;;;;;;6.23;65.90;97327.78;5075804;28;20055;-71
2021/03/23 10:30:37;;;;;;;15.90;9.85;;;;;;;6.25;63.26;97320.63;5075302;28;20039;-71
2021/03/23 10:33:27;;;;;;;17.10;10.27;;;;;;;6.24;63.63;97318.22;5074978;28;20041;-71
2021/03/23 10:35:59;;;;;;;14.27;9.98;;;;;;;6.24;64.64;97326.81;5075282;28;20044;-71
2021/03/23 10:38:29;;;;;;;17.02;10.02;;;;;;;6.35;64.88;97324.84;5075284;28;20036;-71
2021/03/23 10:41:22;;;;;;;16.25;10.52;;;;;;;6.45;63.58;97310.63;5075167;28;20044;-71
2021/03/23 10:43:52;;;;;;;15.40;10.32;;;;;;;6.55;64.86;97328.66;5074647;28;20039;-71
2021/03/23 10:46:42;;;;;;;15.35;9.75;;;;;;;6.66;63.25;97309.22;5075009;28;20033;-71
2021/03/23 10:49:20;;;;;;;18.58;11.23;;;;;;;6.69;62.81;97303.66;5075431;28;20041;-71
2021/03/23 10:51:50;;;;;;;15.35;10.70;;;;;;;6.73;63.80;97314.56;5073630;28;20044;-71
2021/03/23 10:54:40;;;;;;;14.45;10.35;;;;;;;6.78;63.30;97312.22;5074648;28;20039;-72
2021/03/23 10:57:25;;;;;;;13.52;9.15;;;;;;;6.74;61.77;97305.75;5075253;28;20102;-71
2021/03/23 10:59:52;;;;;;;16.73;9.95;;;;;;;6.66;63.29;97309.22;5060554;28;20460;-71
2021/03/23 11:02:31;;;;;;;13.13;10.00;;;;;;;6.59;60.14;97293.44;5074722;28;20040;-72
2021/03/23 11:05:20;;;;;;;15.77;9.45;;;;;;;6.49;61.98;97308.50;5075436;28;20040;-71
2021/03/23 11:08:02;;;;;;;11.25;7.90;;;;;;;6.46;61.63;97308.81;5073302;28;20469;-71
2021/03/23 11:10:33;;;;;;;12.40;7.55;;;;;;;6.47;61.71;97305.25;5073432;28;20032;-71
2021/03/23 11:12:59;;;;;;;9.35;7.53;;;;;;;6.48;62.35;97312.88;5074166;28;20044;-71
2021/03/23 11:15:35;;;;;;;10.82;7.90;;;;;;;6.56;62.28;97309.44;5073297;28;20048;-71
2021/03/23 11:18:04;;;;;;;12.68;8.25;;;;;;;6.67;62.00;97300.41;5074215;28;20055;-71
2021/03/23 11:20:39;;;;;;;9.10;6.82;;;;;;;6.75;59.97;97289.94;5073198;28;20420;-71
2021/03/23 11:23:37;;;;;;;10.63;7.20;;;;;;;6.87;59.12;97274.72;5074052;28;20039;-71
2021/03/23 11:26:05;;;;;;;8.38;6.22;;;;;;;6.91;61.02;97297.66;5070102;28;20041;-71
2021/03/23 11:28:32;;;;;;;10.02;7.35;;;;;;;6.94;60.68;97293.06;5074459;28;20484;-71
2021/03/23 11:31:01;;;;;;;11.18;7.03;;;;;;;6.97;60.80;97290.94;5074034;28;20032;-71
2021/03/23 11:33:29;;;;;;;9.60;7.50;;;;;;;7.02;60.56;97286.00;5073747;28;20033;-71
2021/03/23 11:35:56;;;;;;;10.27;7.25;;;;;;;7.03;60.06;97287.59;5074085;28;20047;-72
2021/03/23 11:38:23;;;;;;;12.35;8.00;;;;;;;6.97;59.77;97279.69;5074149;28;20040;-71
2021/03/23 11:40:53;;;;;;;11.10;8.13;;;;;;;6.91;59.84;97282.00;5073750;28;20047;-71
2021/03/23 11:43:28;;;;;;;11.13;8.40;;;;;;;6.90;58.85;97276.97;5073819;28;20029;-71
2021/03/23 11:46:01;;;;;;;12.05;7.97;;;;;;;6.85;58.04;97267.06;5073896;28;20033;-71
2021/03/23 11:48:37;;;;;;;10.60;7.15;;;;;;;6.74;57.91;97264.84;5062118;28;20425;-71
2021/03/23 11:51:04;;;;;;;10.18;7.32;;;;;;;6.66;59.21;97267.50;5073154;28;20040;-71
2021/03/23 11:53:31;;;;;;;11.43;7.20;;;;;;;6.67;59.29;97275.13;5073496;28;20381;-71
2021/03/23 11:55:58;;;;;;;8.73;7.43;;;;;;;6.64;58.84;97269.47;5074047;28;20496;-71
2021/03/23 11:58:25;;;;;;;9.07;6.72;;;;;;;6.66;58.89;97267.50;5073610;28;20107;-71